Time;durP1;ratioP1;P1;durP2;ratioP2;P2;SDS_P1;SDS_P2;PMS_P1;PMS_P2;Temp;Humidity;BMP_temperature;BMP_pressure;BME280_temperature;BME280_humidity;BME280_pressure;Samples;Min_cycle;Max_cycle;Signal;HPM_P1;HPM_P2
2024/01/13 00:02:22;;;;;;;5.88;2.75;;;;;;;;;;5035427;28;20053;-76
2024/01/13 00:04:50;;;;;;;1.65;1.55;;;;;;;;;;5039859;28;20049;-76
2024/01/13 00:07:18;;;;;;;6.15;1.83;;;;;;;;;;5041183;28;20073;-76
2024/01/13 00:09:45;;;;;;;3.10;2.10;;;;;;;;;;5031785;28;20753;-77
2024/01/13 00:12:13;;;;;;;2.17;2.08;;;;;;;;;;5036015;28;20107;-76
2024/01/13 00:14:41;;;;;;;4.13;1.48;;;;;;;;;;5035005;28;20068;-76
2024/01/13 00:17:08;;;;;;;0.80;0.80;;;;;;;;;;5040826;28;20629;-76
2024/01/13 00:19:36;;;;;;;3.38;3.08;;;;;;;;;;5038901;28;20064;-77
2024/01/13 00:22:04;;;;;;;2.20;0.90;;;;;;;;;;5042803;28;20040;-76
2024/01/13 00:24:32;;;;;;;5.68;3.70;;;;;;;;;;5039423;28;20461;-76
2024/01/13 00:26:59;;;;;;;0.20;0.20;;;;;;;;;;5038535;28;20045;-76
2024/01/13 00:29:27;;;;;;;10.68;4.53;;;;;;;;;;5037204;28;20052;-76
2024/01/13 00:31:55;;;;;;;12.02;6.10;;;;;;;;;;5042508;28;20399;-77
2024/01/13 00:34:23;;;;;;;13.40;6.65;;;;;;;;;;5038086;28;20521;-77
2024/01/13 00:36:50;;;;;;;6.28;4.05;;;;;;;;;;5041208;28;20057;-76
2024/01/13 00:39:18;;;;;;;0.28;0.28;;;;;;;;;;5042272;28;20410;-76
2024/01/13 00:41:46;;;;;;;3.92;2.75;;;;;;;;;;5038510;28;20064;-75
2024/01/13 00:44:14;;;;;;;0.40;0.40;;;;;;;;;;5046755;22;20049;-78
2024/01/13 00:46:41;;;;;;;3.15;2.30;;;;;;;;;;4977160;28;20046;-77
2024/01/13 00:49:09;;;;;;;9.05;6.40;;;;;;;;;;4980308;28;20054;-78
2024/01/13 00:51:37;;;;;;;5.93;3.60;;;;;;;;;;4981405;28;20108;-77
2024/01/13 00:54:06;;;;;;;8.70;3.42;;;;;;;;;;4983167;28;20182;-78
2024/01/13 00:56:39;;;;;;;7.13;5.43;;;;;;;;;;4983548;28;20042;-77
2024/01/13 00:59:06;;;;;;;0.70;0.70;;;;;;;;;;4983374;28;20066;-77
2024/01/13 01:01:34;;;;;;;7.35;5.20;;;;;;;;;;4979163;28;20069;-76
2024/01/13 01:04:02;;;;;;;1.88;1.75;;;;;;;;;;4982458;28;20524;-77
2024/01/13 01:06:30;;;;;;;4.07;3.55;;;;;;;;;;4979728;28;20047;-78
2024/01/13 01:08:58;;;;;;;2.08;1.90;;;;;;;;;;4982937;28;20050;-77
2024/01/13 01:11:26;;;;;;;8.43;7.15;;;;;;;;;;4978814;28;20043;-77
2024/01/13 01:13:55;;;;;;;14.93;9.40;;;;;;;;;;4982152;28;20421;-78
2024/01/13 01:16:23;;;;;;;4.05;3.58;;;;;;;;;;4978149;28;20058;-76
2024/01/13 01:18:52;;;;;;;18.48;9.32;;;;;;;;;;4983058;28;20289;-77
2024/01/13 01:21:20;;;;;;;12.05;7.43;;;;;;;;;;4981405;28;20428;-76
2024/01/13 01:23:48;;;;;;;1.38;0.80;;;;;;;;;;4982599;28;20080;-77
2024/01/13 01:26:17;;;;;;;0.90;0.90;;;;;;;;;;4979951;28;20042;-77
2024/01/13 01:28:45;;;;;;;6.68;6.00;;;;;;;;;;4976240;28;20474;-78
2024/01/13 01:31:12;;;;;;;13.43;9.48;;;;;;;;;;4979970;28;20534;-78
2024/01/13 01:33:40;;;;;;;8.73;4.45;;;;;;;;;;4982770;28;20033;-77
2024/01/13 01:36:09;;;;;;;4.70;2.17;;;;;;;;;;4979498;28;20057;-77
2024/01/13 01:38:37;;;;;;;6.68;4.03;;;;;;;;;;4984956;28;20054;-76
2024/01/13 01:41:14;;;;;;;21.15;11.00;;;;;;;;;;4978217;28;20467;-76
2024/01/13 01:43:44;;;;;;;11.98;7.88;;;;;;;;;;4983001;28;20441;-77
2024/01/13 01:46:17;;;;;;;9.00;4.60;;;;;;;;;;4976191;28;20189;-77
2024/01/13 01:48:46;;;;;;;13.15;8.77;;;;;;;;;;4979234;28;20054;-77
2024/01/13 01:51:15;;;;;;;2.03;1.83;;;;;;;;;;4982173;28;20042;-77
2024/01/13 01:53:45;;;;;;;2.55;1.55;;;;;;;;;;4982528;28;20042;-77
2024/01/13 01:56:15;;;;;;;12.50;7.60;;;;;;;;;;4978074;28;20046;-77
2024/01/13 01:58:43;;;;;;;9.80;6.72;;;;;;;;;;4983637;28;20050;-77
2024/01/13 02:01:11;;;;;;;3.95;3.42;;;;;;;;;;4979228;28;20456;-76
2024/01/13 02:03:40;;;;;;;2.63;2.40;;;;;;;;;;4982322;28;20549;-78
2024/01/13 02:06:08;;;;;;;12.23;5.30;;;;;;;;;;4981019;28;20097;-76
2024/01/13 02:08:36;;;;;;;11.20;4.93;;;;;;;;;;4982069;28;20053;-77
2024/01/13 02:11:12;;;;;;;17.38;5.38;;;;;;;;;;4978825;28;20050;-76
2024/01/13 02:13:43;;;;;;;4.07;3.78;;;;;;;;;;4983711;28;20046;-77
2024/01/13 02:16:11;;;;;;;12.60;6.05;;;;;;;;;;4973721;28;20093;-76
2024/01/13 02:18:39;;;;;;;4.32;3.92;;;;;;;;;;4982263;28;20580;-77
2024/01/13 02:21:10;;;;;;;10.20;5.80;;;;;;;;;;4980998;28;20524;-76
2024/01/13 02:23:39;;;;;;;5.78;2.60;;;;;;;;;;4983628;28;20496;-78
2024/01/13 02:26:07;;;;;;;0.80;0.60;;;;;;;;;;4978764;28;20050;-76
2024/01/13 02:28:35;;;;;;;5.93;4.18;;;;;;;;;;4975677;28;20227;-78
2024/01/13 02:31:14;;;;;;;2.72;2.00;;;;;;;;;;4976301;28;20209;-77
2024/01/13 02:33:46;;;;;;;3.63;2.45;;;;;;;;;;4983709;28;20089;-77
2024/01/13 02:36:14;;;;;;;2.67;2.47;;;;;;;;;;4979639;28;20076;-77
2024/01/13 02:38:42;;;;;;;5.32;3.88;;;;;;;;;;4981988;28;20042;-78
2024/01/13 02:41:10;;;;;;;2.97;2.78;;;;;;;;;;4979045;28;20083;-79
2024/01/13 02:43:37;;;;;;;1.33;0.88;;;;;;;;;;4980965;28;20082;-80
2024/01/13 02:46:05;;;;;;;12.25;6.93;;;;;;;;;;4977608;28;20050;-78
2024/01/13 02:48:38;;;;;;;27.60;12.50;;;;;;;;;;4980881;28;20046;-78
2024/01/13 02:51:12;;;;;;;4.63;4.25;;;;;;;;;;4982425;28;20090;-79
2024/01/13 02:53:41;;;;;;;11.80;7.13;;;;;;;;;;4992343;28;20034;-78
2024/01/13 02:56:09;;;;;;;12.20;6.63;;;;;;;;;;4986518;28;20085;-79
2024/01/13 02:58:37;;;;;;;14.60;9.23;;;;;;;;;;4985033;28;20439;-79
2024/01/13 03:01:15;;;;;;;0.45;0.45;;;;;;;;;;4985448;28;20062;-77
2024/01/13 03:03:49;;;;;;;0.28;0.28;;;;;;;;;;4988992;28;20051;-77
2024/01/13 03:06:20;;;;;;;3.97;3.28;;;;;;;;;;4985913;28;20050;-78
2024/01/13 03:08:49;;;;;;;7.72;4.80;;;;;;;;;;4987601;28;20115;-78
2024/01/13 03:11:16;;;;;;;16.73;7.45;;;;;;;;;;4980240;28;20160;-78
2024/01/13 03:13:44;;;;;;;6.45;5.75;;;;;;;;;;4986366;28;20057;-78
2024/01/13 03:16:14;;;;;;;0.63;0.63;;;;;;;;;;4984008;28;20062;-77
2024/01/13 03:18:42;;;;;;;2.67;2.38;;;;;;;;;;4989895;28;20062;-77
2024/01/13 03:21:11;;;;;;;0.35;0.35;;;;;;;;;;4985332;28;20065;-78
2024/01/13 03:24:00;;;;;;;5.40;2.22;;;;;;;;;;4989913;28;20077;-78
2024/01/13 03:26:28;;;;;;;1.45;1.35;;;;;;;;;;4983318;28;20050;-78
2024/01/13 03:28:56;;;;;;;6.35;3.58;;;;;;;;;;4986002;28;20062;-78
2024/01/13 03:31:23;;;;;;;6.55;4.53;;;;;;;;;;4987888;28;20392;-78
2024/01/13 03:33:51;;;;;;;0.85;0.85;;;;;;;;;;4987505;28;20042;-78
2024/01/13 03:36:19;;;;;;;9.18;5.30;;;;;;;;;;4984811;28;20104;-77
2024/01/13 03:38:47;;;;;;;6.45;4.00;;;;;;;;;;4987116;28;20506;-78
2024/01/13 03:41:16;;;;;;;15.85;8.00;;;;;;;;;;4984494;28;20686;-77
2024/01/13 03:43:44;;;;;;;9.65;5.65;;;;;;;;;;4988417;28;20055;-78
2024/01/13 03:46:13;;;;;;;1.65;1.17;;;;;;;;;;4979107;28;20053;-78
2024/01/13 03:48:40;;;;;;;17.13;4.05;;;;;;;;;;4968478;28;20038;-77
2024/01/13 03:51:09;;;;;;;2.20;2.08;;;;;;;;;;4986576;28;20386;-78
2024/01/13 03:53:37;;;;;;;3.03;1.15;;;;;;;;;;4986131;28;20080;-79
2024/01/13 03:56:08;;;;;;;4.00;1.98;;;;;;;;;;4983766;28;20124;-77
2024/01/13 03:58:36;;;;;;;3.45;3.13;;;;;;;;;;4986147;28;20093;-78
2024/01/13 04:01:04;;;;;;;1.05;0.82;;;;;;;;;;4985696;28;20460;-77
2024/01/13 04:03:32;;;;;;;6.72;4.70;;;;;;;;;;4987029;28;20456;-78
2024/01/13 04:06:02;;;;;;;3.05;2.85;;;;;;;;;;4986296;28;20050;-78
2024/01/13 04:08:31;;;;;;;3.20;2.20;;;;;;;;;;4985356;28;20073;-77
2024/01/13 04:10:58;;;;;;;1.63;1.63;;;;;;;;;;4980031;28;20231;-79
2024/01/13 04:13:26;;;;;;;6.15;1.55;;;;;;;;;;4985547;28;20042;-78
2024/01/13 04:15:53;;;;;;;1.20;1.20;;;;;;;;;;4982269;28;20039;-78
2024/01/13 04:18:21;;;;;;;4.22;3.53;;;;;;;;;;4985367;28;20043;-78
2024/01/13 04:20:49;;;;;;;4.47;2.63;;;;;;;;;;4984231;28;20097;-79
2024/01/13 04:23:33;;;;;;;0.43;0.43;;;;;;;;;;4987059;28;20050;-77
2024/01/13 04:26:01;;;;;;;0.50;0.50;;;;;;;;;;4981305;28;20405;-78
2024/01/13 04:28:28;;;;;;;8.98;5.38;;;;;;;;;;4978403;28;20064;-77
2024/01/13 04:30:56;;;;;;;4.50;2.92;;;;;;;;;;4973728;28;20062;-77
2024/01/13 04:33:24;;;;;;;1.73;1.63;;;;;;;;;;4975817;28;20070;-78
2024/01/13 04:35:52;;;;;;;6.35;2.08;;;;;;;;;;4984641;28;20496;-77
2024/01/13 04:38:20;;;;;;;1.08;0.57;;;;;;;;;;4984356;28;20123;-78
2024/01/13 04:40:49;;;;;;;9.68;6.28;;;;;;;;;;4982892;28;20058;-78
2024/01/13 04:43:16;;;;;;;3.03;2.60;;;;;;;;;;4982018;28;20038;-78
2024/01/13 04:45:44;;;;;;;4.20;2.47;;;;;;;;;;4982747;28;20054;-78
2024/01/13 04:48:13;;;;;;;6.60;3.47;;;;;;;;;;4987649;28;20050;-78
2024/01/13 04:50:41;;;;;;;2.95;2.65;;;;;;;;;;4986162;28;20547;-77
2024/01/13 04:53:09;;;;;;;0.30;0.30;;;;;;;;;;4988365;28;20217;-77
2024/01/13 04:55:37;;;;;;;1.13;1.00;;;;;;;;;;4982423;28;20045;-78
2024/01/13 04:58:05;;;;;;;10.48;4.57;;;;;;;;;;4984526;28;20050;-78
2024/01/13 05:00:33;;;;;;;0.47;0.47;;;;;;;;;;4983852;28;20047;-78
2024/01/13 05:03:01;;;;;;;2.72;1.75;;;;;;;;;;4984109;28;20077;-79
2024/01/13 05:05:30;;;;;;;6.63;3.60;;;;;;;;;;4979881;28;20117;-77
2024/01/13 05:07:58;;;;;;;1.73;1.58;;;;;;;;;;4986238;28;20042;-78
2024/01/13 05:10:25;;;;;;;4.05;2.83;;;;;;;;;;4985699;28;20046;-77
2024/01/13 05:12:53;;;;;;;10.60;3.50;;;;;;;;;;4982014;28;20203;-77
2024/01/13 05:15:29;;;;;;;11.20;7.10;;;;;;;;;;5010489;23;20073;-79
2024/01/13 05:18:06;;;;;;;8.82;6.25;;;;;;;;;;5030993;28;20068;-80
2024/01/13 05:20:42;;;;;;;2.85;1.73;;;;;;;;;;5029558;28;20088;-80
2024/01/13 05:27:51;;;;;;;6.97;3.88;;;;;;;;;;5002618;28;20427;-80
2024/01/13 05:30:46;;;;;;;0.98;0.98;;;;;;;;;;5003108;28;20042;-80
2024/01/13 05:33:42;;;;;;;6.35;3.33;;;;;;;;;;5015910;28;20033;-80
2024/01/13 05:36:48;;;;;;;11.02;4.97;;;;;;;;;;5013490;28;20038;-80
2024/01/13 05:40:44;;;;;;;8.10;5.93;;;;;;;;;;5010487;28;20466;-83
2024/01/13 05:43:22;;;;;;;8.55;3.40;;;;;;;;;;5011079;28;20057;-79
2024/01/13 05:46:25;;;;;;;9.25;7.05;;;;;;;;;;5008864;28;20124;-81
2024/01/13 05:49:04;;;;;;;1.35;1.00;;;;;;;;;;5025330;28;20049;-80
2024/01/13 05:52:01;;;;;;;7.05;2.40;;;;;;;;;;5008117;28;20050;-80
2024/01/13 05:54:57;;;;;;;15.85;6.78;;;;;;;;;;5007738;28;20119;-80
2024/01/13 05:57:57;;;;;;;2.40;1.83;;;;;;;;;;5007946;28;20076;-80
2024/01/13 06:05:25;;;;;;;5.85;5.28;;;;;;;;;;5009160;28;20053;-80
2024/01/13 06:08:48;;;;;;;0.63;0.63;;;;;;;;;;4966971;28;20055;-79
2024/01/13 06:11:44;;;;;;;9.82;6.78;;;;;;;;;;4968990;28;20043;-79
2024/01/13 06:14:31;;;;;;;1.88;1.75;;;;;;;;;;4967241;28;20169;-80
2024/01/13 06:24:40;;;;;;;2.97;2.70;;;;;;;;;;4988599;23;20046;-79
2024/01/13 06:27:08;;;;;;;9.15;4.53;;;;;;;;;;4995935;28;20080;-78
2024/01/13 06:29:36;;;;;;;7.97;5.07;;;;;;;;;;5002717;28;20048;-78
2024/01/13 06:32:04;;;;;;;0.52;0.50;;;;;;;;;;5031111;28;20040;-78
2024/01/13 06:34:32;;;;;;;5.97;3.10;;;;;;;;;;5003324;28;20426;-78
2024/01/13 06:37:00;;;;;;;5.03;4.03;;;;;;;;;;5033249;28;20052;-77
2024/01/13 06:39:30;;;;;;;3.60;2.92;;;;;;;;;;5019966;28;20041;-77
2024/01/13 06:41:58;;;;;;;7.30;4.55;;;;;;;;;;5030025;28;20084;-78
2024/01/13 06:44:26;;;;;;;17.60;8.38;;;;;;;;;;5029106;28;20511;-77
2024/01/13 06:47:10;;;;;;;5.32;3.63;;;;;;;;;;5017428;28;20049;-76
2024/01/13 06:49:45;;;;;;;6.70;4.93;;;;;;;;;;5029418;28;20049;-77
2024/01/13 06:52:13;;;;;;;4.43;3.13;;;;;;;;;;5041860;28;20045;-78
2024/01/13 06:54:41;;;;;;;12.82;5.28;;;;;;;;;;5043785;28;20494;-77
2024/01/13 06:57:08;;;;;;;4.10;3.45;;;;;;;;;;5019172;28;20579;-78
2024/01/13 06:59:36;;;;;;;13.38;8.30;;;;;;;;;;5044372;28;20053;-77
2024/01/13 07:02:04;;;;;;;11.82;6.50;;;;;;;;;;5036988;28;20083;-78
2024/01/13 07:04:33;;;;;;;11.27;6.03;;;;;;;;;;5021039;28;20049;-77
2024/01/13 07:07:01;;;;;;;1.95;1.85;;;;;;;;;;5044384;28;20507;-78
2024/01/13 07:09:29;;;;;;;2.80;2.63;;;;;;;;;;5045059;28;20103;-78
2024/01/13 07:11:56;;;;;;;4.75;2.92;;;;;;;;;;5044359;28;20083;-78
2024/01/13 07:14:24;;;;;;;0.63;0.63;;;;;;;;;;5047046;28;20088;-78
2024/01/13 07:16:52;;;;;;;1.45;1.35;;;;;;;;;;5048054;28;20473;-79
2024/01/13 07:19:19;;;;;;;9.38;4.75;;;;;;;;;;5045044;28;20506;-79
2024/01/13 07:21:47;;;;;;;9.15;6.38;;;;;;;;;;5029554;28;20060;-78
2024/01/13 07:24:15;;;;;;;2.45;2.30;;;;;;;;;;5044277;28;20045;-78
2024/01/13 07:26:44;;;;;;;5.70;3.97;;;;;;;;;;5047648;28;20096;-79
2024/01/13 07:29:12;;;;;;;1.88;1.33;;;;;;;;;;5051180;28;20064;-79
2024/01/13 07:31:40;;;;;;;3.78;3.33;;;;;;;;;;5045689;28;20041;-77
2024/01/13 07:34:08;;;;;;;0.47;0.47;;;;;;;;;;5045859;28;20490;-77
2024/01/13 07:36:38;;;;;;;4.68;2.80;;;;;;;;;;5045566;28;20089;-76
2024/01/13 07:39:09;;;;;;;6.35;2.75;;;;;;;;;;5042715;28;20643;-77
2024/01/13 07:41:37;;;;;;;2.35;2.15;;;;;;;;;;5044088;28;20053;-77
2024/01/13 07:44:08;;;;;;;2.30;1.85;;;;;;;;;;5044947;28;20098;-77
2024/01/13 07:46:42;;;;;;;0.82;0.82;;;;;;;;;;5045416;28;20041;-77
2024/01/13 07:49:09;;;;;;;9.15;5.20;;;;;;;;;;5047607;28;20060;-78
2024/01/13 07:51:38;;;;;;;1.95;1.05;;;;;;;;;;5047586;28;20049;-77
2024/01/13 07:54:06;;;;;;;0.63;0.63;;;;;;;;;;5043151;28;20045;-77
2024/01/13 07:56:34;;;;;;;3.00;2.80;;;;;;;;;;5020274;28;20045;-77
2024/01/13 07:59:03;;;;;;;4.40;3.15;;;;;;;;;;5029174;28;20048;-78
2024/01/13 08:01:32;;;;;;;12.77;5.57;;;;;;;;;;5036096;28;20414;-77
2024/01/13 08:04:06;;;;;;;4.15;2.60;;;;;;;;;;5023592;28;20049;-77
2024/01/13 08:06:35;;;;;;;7.78;4.55;;;;;;;;;;5044713;28;20041;-77
2024/01/13 08:09:03;;;;;;;6.10;3.95;;;;;;;;;;5045225;28;20037;-77
2024/01/13 08:11:31;;;;;;;3.88;2.55;;;;;;;;;;5022563;28;20041;-76
2024/01/13 08:14:06;;;;;;;6.05;4.85;;;;;;;;;;5043164;28;20045;-78
2024/01/13 08:16:34;;;;;;;1.10;1.10;;;;;;;;;;5042658;28;20051;-77
2024/01/13 08:19:02;;;;;;;1.10;1.10;;;;;;;;;;5033256;28;20328;-76
2024/01/13 08:21:30;;;;;;;0.68;0.68;;;;;;;;;;5044904;28;20056;-77
2024/01/13 08:24:06;;;;;;;7.20;4.45;;;;;;;;;;5043601;28;20061;-79
2024/01/13 08:26:34;;;;;;;9.23;4.82;;;;;;;;;;5033210;28;20424;-76
2024/01/13 08:29:02;;;;;;;7.72;5.32;;;;;;;;;;5030706;28;20052;-77
2024/01/13 08:31:30;;;;;;;9.80;6.40;;;;;;;;;;5038430;28;20044;-76
2024/01/13 08:34:10;;;;;;;2.65;2.33;;;;;;;;;;5042618;28;20449;-77
2024/01/13 08:36:41;;;;;;;5.22;3.70;;;;;;;;;;5035833;28;20049;-77
2024/01/13 08:39:09;;;;;;;2.40;2.20;;;;;;;;;;5040179;28;20058;-77
2024/01/13 08:41:38;;;;;;;2.25;1.50;;;;;;;;;;5039856;28;20053;-77
2024/01/13 08:44:05;;;;;;;3.05;0.88;;;;;;;;;;5038717;28;20052;-77
2024/01/13 08:46:33;;;;;;;5.50;4.43;;;;;;;;;;5042223;28;20422;-77
2024/01/13 08:49:01;;;;;;;0.43;0.43;;;;;;;;;;5019186;28;20041;-77
2024/01/13 08:51:29;;;;;;;13.70;6.75;;;;;;;;;;5041091;28;20669;-78
2024/01/13 08:54:05;;;;;;;7.43;4.00;;;;;;;;;;5021087;28;20045;-78
2024/01/13 08:56:36;;;;;;;6.20;2.63;;;;;;;;;;5034976;28;20130;-77
2024/01/13 08:59:08;;;;;;;1.48;1.38;;;;;;;;;;5032774;28;20057;-77
2024/01/13 09:01:37;;;;;;;9.35;6.47;;;;;;;;;;5039579;28;20956;-78
2024/01/13 09:04:08;;;;;;;4.60;3.35;;;;;;;;;;5024160;28;20430;-77
2024/01/13 09:06:36;;;;;;;0.52;0.52;;;;;;;;;;5038922;28;20059;-77
2024/01/13 09:09:04;;;;;;;2.35;2.25;;;;;;;;;;5037135;28;20096;-77
2024/01/13 09:11:33;;;;;;;5.50;4.18;;;;;;;;;;5021021;28;20044;-77
2024/01/13 09:14:10;;;;;;;1.58;1.48;;;;;;;;;;5042847;28;20395;-78
2024/01/13 09:16:40;;;;;;;2.33;1.00;;;;;;;;;;5042753;28;20048;-78
2024/01/13 09:19:08;;;;;;;11.35;5.88;;;;;;;;;;5042149;28;20323;-78
2024/01/13 09:21:38;;;;;;;2.83;2.47;;;;;;;;;;5043269;28;20052;-78
2024/01/13 09:24:13;;;;;;;4.82;3.30;;;;;;;;;;5026562;28;20067;-78
2024/01/13 09:26:42;;;;;;;13.88;5.28;;;;;;;;;;5019992;28;20079;-79
2024/01/13 09:29:13;;;;;;;2.97;2.78;;;;;;;;;;5037570;28;20049;-78
2024/01/13 09:31:42;;;;;;;9.05;5.50;;;;;;;;;;5034932;28;20418;-79
2024/01/13 09:34:10;;;;;;;1.40;1.33;;;;;;;;;;5039268;28;20445;-79
2024/01/13 09:36:40;;;;;;;2.38;2.28;;;;;;;;;;5039704;28;20127;-77
2024/01/13 09:39:11;;;;;;;2.40;2.20;;;;;;;;;;5017332;28;20523;-77
2024/01/13 09:41:46;;;;;;;2.20;2.00;;;;;;;;;;5040179;28;20053;-77
2024/01/13 09:44:23;;;;;;;1.05;1.00;;;;;;;;;;5036826;28;20139;-78
2024/01/13 09:46:53;;;;;;;1.77;1.67;;;;;;;;;;5021358;28;20135;-78
2024/01/13 09:49:23;;;;;;;1.33;1.33;;;;;;;;;;5044185;28;20059;-79
2024/01/13 09:51:53;;;;;;;0.93;0.93;;;;;;;;;;5042382;28;20060;-78
2024/01/13 09:54:25;;;;;;;1.65;1.55;;;;;;;;;;5041910;28;20046;-77
2024/01/13 09:56:54;;;;;;;4.18;3.30;;;;;;;;;;5042838;28;20304;-78
2024/01/13 09:59:22;;;;;;;3.40;2.00;;;;;;;;;;5018186;28;20131;-77
2024/01/13 10:01:51;;;;;;;1.88;1.10;;;;;;;;;;5033201;28;20055;-78
2024/01/13 10:04:19;;;;;;;0.90;0.90;;;;;;;;;;5034973;28;20053;-82
2024/01/13 10:06:48;;;;;;;5.90;2.83;;;;;;;;;;5047719;28;20048;-78
2024/01/13 10:09:16;;;;;;;2.03;1.88;;;;;;;;;;5047133;28;20049;-77
2024/01/13 10:12:02;;;;;;;4.00;3.55;;;;;;;;;;5043885;28;20049;-78
2024/01/13 10:14:31;;;;;;;3.55;1.63;;;;;;;;;;5035274;28;20151;-77
2024/01/13 10:17:05;;;;;;;1.58;1.48;;;;;;;;;;5037887;28;20132;-74
2024/01/13 10:19:42;;;;;;;1.77;0.88;;;;;;;;;;5044452;28;20057;-78
2024/01/13 10:22:13;;;;;;;3.97;3.53;;;;;;;;;;5045181;28;20060;-78
2024/01/13 10:24:41;;;;;;;4.38;2.55;;;;;;;;;;5042074;28;20061;-77
2024/01/13 10:27:09;;;;;;;1.60;1.40;;;;;;;;;;5037334;28;20108;-78
2024/01/13 10:29:38;;;;;;;0.82;0.63;;;;;;;;;;5046046;28;20099;-78
2024/01/13 10:32:10;;;;;;;5.38;3.40;;;;;;;;;;5039352;28;20115;-78
2024/01/13 10:34:45;;;;;;;0.88;0.60;;;;;;;;;;5023634;28;20327;-78
2024/01/13 10:37:13;;;;;;;2.58;2.38;;;;;;;;;;5049324;28;20111;-79
2024/01/13 10:39:41;;;;;;;1.38;1.08;;;;;;;;;;5049779;28;20095;-78
2024/01/13 10:42:09;;;;;;;1.15;1.15;;;;;;;;;;5021982;28;20091;-77
2024/01/13 10:44:42;;;;;;;5.05;1.05;;;;;;;;;;5044417;28;20049;-78
2024/01/13 10:47:13;;;;;;;2.23;1.83;;;;;;;;;;5044355;28;21207;-78
2024/01/13 10:49:42;;;;;;;0.68;0.68;;;;;;;;;;5045216;28;20542;-78
2024/01/13 10:52:14;;;;;;;1.38;1.27;;;;;;;;;;5047147;28;20120;-78
2024/01/13 10:54:42;;;;;;;5.78;1.55;;;;;;;;;;5025432;28;20542;-77
2024/01/13 10:57:13;;;;;;;2.92;1.85;;;;;;;;;;5043217;28;20051;-78
2024/01/13 10:59:43;;;;;;;2.55;2.35;;;;;;;;;;5048945;28;20041;-77
2024/01/13 11:02:12;;;;;;;2.90;1.63;;;;;;;;;;5042883;28;20045;-78
2024/01/13 11:04:45;;;;;;;1.20;1.10;;;;;;;;;;5043416;28;20486;-78
2024/01/13 11:07:13;;;;;;;3.53;1.95;;;;;;;;;;5045810;28;20505;-78
2024/01/13 11:09:41;;;;;;;5.38;2.58;;;;;;;;;;5050074;28;20080;-78
2024/01/13 11:12:12;;;;;;;0.22;0.22;;;;;;;;;;5045776;28;20072;-78
2024/01/13 11:14:51;;;;;;;10.43;4.82;;;;;;;;;;5050181;28;20083;-77
2024/01/13 11:17:20;;;;;;;3.15;0.93;;;;;;;;;;5045714;28;20047;-77
2024/01/13 11:19:48;;;;;;;1.08;1.08;;;;;;;;;;5049419;28;20102;-75
2024/01/13 11:22:36;;;;;;;5.30;3.55;;;;;;;;;;5048037;28;20044;-77
2024/01/13 11:25:22;;;;;;;3.10;1.75;;;;;;;;;;5027621;28;20056;-77
2024/01/13 11:28:13;;;;;;;9.82;5.28;;;;;;;;;;5046360;28;20041;-77
2024/01/13 11:30:41;;;;;;;2.03;1.92;;;;;;;;;;5043967;28;20103;-76
2024/01/13 11:33:10;;;;;;;2.50;2.30;;;;;;;;;;5045201;28;20045;-77
2024/01/13 11:35:39;;;;;;;1.17;1.13;;;;;;;;;;5043472;28;20103;-78
2024/01/13 11:38:07;;;;;;;3.25;2.20;;;;;;;;;;5048125;28;20123;-79
2024/01/13 11:40:35;;;;;;;0.90;0.90;;;;;;;;;;5045921;28;20060;-80
2024/01/13 11:43:08;;;;;;;5.63;3.78;;;;;;;;;;5054202;28;20562;-81
2024/01/13 11:45:40;;;;;;;1.13;1.13;;;;;;;;;;5050741;28;20675;-79
2024/01/13 11:48:26;;;;;;;1.95;1.08;;;;;;;;;;5040862;28;20049;-78
2024/01/13 11:50:54;;;;;;;0.82;0.82;;;;;;;;;;5047758;28;20051;-79
2024/01/13 11:53:42;;;;;;;4.53;2.97;;;;;;;;;;5047669;28;20044;-79
2024/01/13 11:56:11;;;;;;;2.30;0.70;;;;;;;;;;5044387;28;20098;-78
2024/01/13 11:58:39;;;;;;;2.20;0.77;;;;;;;;;;5047482;28;20055;-79
2024/01/13 12:01:09;;;;;;;3.40;3.10;;;;;;;;;;5027666;28;20053;-79
2024/01/13 12:03:43;;;;;;;0.22;0.22;;;;;;;;;;5045004;28;20052;-77
2024/01/13 12:06:12;;;;;;;1.35;1.25;;;;;;;;;;5043630;28;20052;-78
2024/01/13 12:08:41;;;;;;;9.00;5.63;;;;;;;;;;5049092;28;20064;-78
2024/01/13 12:11:10;;;;;;;1.05;1.02;;;;;;;;;;5048190;28;20090;-78
2024/01/13 12:13:37;;;;;;;2.67;1.48;;;;;;;;;;5046110;28;20048;-78
2024/01/13 12:16:07;;;;;;;4.32;2.80;;;;;;;;;;5041104;28;20040;-78
2024/01/13 12:18:35;;;;;;;2.47;1.88;;;;;;;;;;5042448;28;20063;-77
2024/01/13 12:21:05;;;;;;;0.95;0.88;;;;;;;;;;5045439;28;20055;-76
2024/01/13 12:23:34;;;;;;;4.10;2.45;;;;;;;;;;5046464;28;20053;-77
2024/01/13 12:26:02;;;;;;;1.55;1.45;;;;;;;;;;5039929;28;20136;-77
2024/01/13 12:28:40;;;;;;;6.38;2.85;;;;;;;;;;5040500;28;20053;-77
2024/01/13 12:31:09;;;;;;;2.92;2.72;;;;;;;;;;5042137;28;20045;-76
2024/01/13 12:33:36;;;;;;;5.20;0.80;;;;;;;;;;5029707;28;20040;-76
2024/01/13 12:36:11;;;;;;;2.38;1.35;;;;;;;;;;5040734;28;20076;-77
2024/01/13 12:38:39;;;;;;;2.08;1.90;;;;;;;;;;5040993;28;20099;-77
2024/01/13 12:41:07;;;;;;;2.50;1.08;;;;;;;;;;5032890;28;21596;-76
2024/01/13 12:43:35;;;;;;;3.60;2.17;;;;;;;;;;5043740;28;20048;-77
2024/01/13 12:46:03;;;;;;;2.08;1.92;;;;;;;;;;5024084;28;20513;-77
2024/01/13 12:48:31;;;;;;;2.05;1.73;;;;;;;;;;5013686;28;20056;-77
2024/01/13 12:51:09;;;;;;;8.65;4.72;;;;;;;;;;5037381;28;20047;-77
2024/01/13 12:53:40;;;;;;;2.60;1.63;;;;;;;;;;5039958;28;20053;-77
2024/01/13 12:56:08;;;;;;;2.67;0.82;;;;;;;;;;5034734;28;20052;-77
2024/01/13 12:58:36;;;;;;;4.45;2.65;;;;;;;;;;5017705;28;20122;-77
2024/01/13 13:01:05;;;;;;;13.15;5.50;;;;;;;;;;5035615;28;20060;-77
2024/01/13 13:03:33;;;;;;;0.68;0.60;;;;;;;;;;5003785;28;20084;-77
2024/01/13 13:06:02;;;;;;;0.75;0.75;;;;;;;;;;5039527;28;20040;-77
2024/01/13 13:08:30;;;;;;;7.03;3.28;;;;;;;;;;5040043;28;20056;-77
2024/01/13 13:10:58;;;;;;;1.65;1.13;;;;;;;;;;5033821;28;20052;-77
2024/01/13 13:13:29;;;;;;;7.85;5.00;;;;;;;;;;5023060;28;20038;-77
2024/01/13 13:15:57;;;;;;;2.72;0.65;;;;;;;;;;5010134;28;20053;-76
2024/01/13 13:18:25;;;;;;;8.27;5.00;;;;;;;;;;5033272;28;20057;-77
2024/01/13 13:20:53;;;;;;;2.15;1.83;;;;;;;;;;5018222;28;20132;-77
2024/01/13 13:23:20;;;;;;;3.38;2.45;;;;;;;;;;5026227;28;20051;-77
2024/01/13 13:25:48;;;;;;;1.10;1.10;;;;;;;;;;5033173;28;20056;-77
2024/01/13 13:28:16;;;;;;;1.35;1.25;;;;;;;;;;5034447;28;20056;-77
2024/01/13 13:30:44;;;;;;;1.00;0.90;;;;;;;;;;5017821;28;20053;-77
2024/01/13 13:33:12;;;;;;;6.80;2.50;;;;;;;;;;5034847;28;20469;-77
2024/01/13 13:35:40;;;;;;;4.65;2.20;;;;;;;;;;5035235;28;20426;-77
2024/01/13 13:38:08;;;;;;;2.63;1.92;;;;;;;;;;5010034;28;20137;-77
2024/01/13 13:40:37;;;;;;;4.38;3.97;;;;;;;;;;5034500;28;20399;-77
2024/01/13 13:43:05;;;;;;;6.20;3.15;;;;;;;;;;5033695;28;20434;-77
2024/01/13 13:45:33;;;;;;;2.08;1.90;;;;;;;;;;5034219;28;20111;-77
2024/01/13 13:48:00;;;;;;;1.10;1.10;;;;;;;;;;5037434;28;20110;-77
2024/01/13 13:50:32;;;;;;;7.97;4.05;;;;;;;;;;5040486;28;20095;-77
2024/01/13 13:53:01;;;;;;;6.35;4.57;;;;;;;;;;5022162;28;20415;-78
2024/01/13 13:55:29;;;;;;;0.98;0.98;;;;;;;;;;5037275;28;20068;-77
2024/01/13 13:57:56;;;;;;;11.07;6.25;;;;;;;;;;5041061;28;20052;-77
2024/01/13 14:00:24;;;;;;;4.15;2.90;;;;;;;;;;5035249;28;20154;-77
2024/01/13 14:02:56;;;;;;;6.00;3.33;;;;;;;;;;5020265;28;20047;-77
2024/01/13 14:05:24;;;;;;;4.22;3.00;;;;;;;;;;5019559;28;20057;-77
2024/01/13 14:07:51;;;;;;;4.20;3.53;;;;;;;;;;5036515;28;20416;-77
2024/01/13 14:10:19;;;;;;;6.85;3.03;;;;;;;;;;5038537;28;20041;-77
2024/01/13 14:12:46;;;;;;;7.60;4.95;;;;;;;;;;5018162;28;20071;-77
2024/01/13 14:15:15;;;;;;;0.63;0.63;;;;;;;;;;5018149;28;20076;-77
2024/01/13 14:17:45;;;;;;;9.75;5.70;;;;;;;;;;5042401;28;20048;-78
2024/01/13 14:20:15;;;;;;;13.88;5.45;;;;;;;;;;5024497;28;20052;-77
2024/01/13 14:22:51;;;;;;;9.23;6.05;;;;;;;;;;5042906;28;20214;-79
2024/01/13 14:25:20;;;;;;;2.80;2.05;;;;;;;;;;5044489;28;20041;-77
2024/01/13 14:27:48;;;;;;;1.33;1.23;;;;;;;;;;5045125;28;20053;-77
2024/01/13 14:30:16;;;;;;;0.65;0.63;;;;;;;;;;5043299;28;20103;-78
2024/01/13 14:32:45;;;;;;;0.63;0.63;;;;;;;;;;5044110;28;20061;-78
2024/01/13 14:35:13;;;;;;;2.97;2.30;;;;;;;;;;5045087;28;20053;-78
2024/01/13 14:37:51;;;;;;;7.80;3.88;;;;;;;;;;5047541;28;20048;-78
2024/01/13 14:40:19;;;;;;;;;;;;;;;;;;5045214;28;21222;-79
2024/01/13 14:42:47;;;;;;;1.80;0.90;;;;;;;;;;5045558;28;19999;-78
2024/01/13 14:45:15;;;;;;;3.60;3.30;;;;;;;;;;5047515;28;20517;-78
2024/01/13 14:47:51;;;;;;;3.15;2.85;;;;;;;;;;5050186;28;20076;-78
2024/01/13 14:50:22;;;;;;;3.38;2.38;;;;;;;;;;5046544;28;20049;-81
2024/01/13 14:52:51;;;;;;;7.68;3.20;;;;;;;;;;5052720;28;20411;-79
2024/01/13 14:55:18;;;;;;;5.47;3.35;;;;;;;;;;5029725;28;20418;-78
2024/01/13 14:57:46;;;;;;;9.48;3.97;;;;;;;;;;5045951;28;20045;-78
2024/01/13 15:00:14;;;;;;;2.20;2.05;;;;;;;;;;5042947;28;20056;-78
2024/01/13 15:02:47;;;;;;;4.05;2.35;;;;;;;;;;5046102;28;20041;-78
2024/01/13 15:05:15;;;;;;;5.78;3.95;;;;;;;;;;5051804;28;20107;-78
2024/01/13 15:07:51;;;;;;;6.72;2.85;;;;;;;;;;5045890;28;20071;-78
2024/01/13 15:10:20;;;;;;;9.57;5.05;;;;;;;;;;5049115;28;20473;-78
2024/01/13 15:12:48;;;;;;;19.80;8.15;;;;;;;;;;5047850;28;20041;-79
2024/01/13 15:15:15;;;;;;;6.30;4.18;;;;;;;;;;5033092;28;20048;-78
2024/01/13 15:17:48;;;;;;;1.70;1.60;;;;;;;;;;5052845;28;20040;-78
2024/01/13 15:20:19;;;;;;;1.95;1.67;;;;;;;;;;5044491;28;20546;-78